createdAt,value
2022-11-26T12:07:07.209Z,101061.34
2022-11-26T12:09:53.391Z,101068.35
2022-11-26T12:12:35.703Z,101062.09
2022-11-26T12:15:10.021Z,101052.50
2022-11-26T12:17:57.158Z,101055.45
2022-11-26T12:20:37.179Z,101059.86
2022-11-26T12:23:24.325Z,101055.06
2022-11-26T12:26:20.938Z,101053.23
2022-11-26T12:28:58.066Z,101052.88
2022-11-26T12:31:43.064Z,101061.72
2022-11-26T12:34:35.258Z,101070.06
2022-11-26T12:37:30.537Z,101063.19
2022-11-26T12:40:21.268Z,101068.20
2022-11-26T12:43:00.123Z,101061.20
2022-11-26T12:45:51.868Z,101071.02
2022-11-26T12:48:45.599Z,101066.97
2022-11-26T12:51:26.307Z,101063.05
2022-11-26T12:54:07.140Z,101073.98
2022-11-26T12:56:50.392Z,101070.92
2022-11-26T12:59:39.607Z,101073.37
2022-11-26T13:02:30.161Z,101085.31
2022-11-26T13:05:00.159Z,101087.02
2022-11-26T13:08:05.101Z,101096.48
2022-11-26T13:10:55.571Z,101101.52
2022-11-26T13:13:54.819Z,101105.21
2022-11-26T13:16:44.330Z,101107.66
2022-11-26T13:19:35.914Z,101108.64
2022-11-26T13:22:44.431Z,101108.28
2022-11-26T13:25:37.196Z,101106.56
2022-11-26T13:28:48.304Z,101111.20
2022-11-26T13:31:42.006Z,101109.11
2022-11-26T13:34:34.621Z,101113.42
2022-11-26T13:37:33.568Z,101112.80
2022-11-26T13:40:10.971Z,101107.64
2022-11-26T13:42:52.482Z,101109.84
2022-11-26T13:45:34.056Z,101109.11
2022-11-26T13:48:11.240Z,101118.33
2022-11-26T13:50:48.021Z,101120.05
2022-11-26T13:53:27.001Z,101123.48
2022-11-26T13:56:01.695Z,101131.35
2022-11-26T13:58:45.467Z,101129.63
2022-11-26T14:01:39.516Z,101130.98
2022-11-26T14:04:12.335Z,101138.59
2022-11-26T14:07:09.577Z,101146.21
2022-11-26T14:09:48.175Z,101152.84
2022-11-26T14:12:17.989Z,101143.75
2022-11-26T14:14:50.423Z,101144.62
2022-11-26T14:17:24.839Z,101147.32
2022-11-26T14:19:59.482Z,101145.84
2022-11-26T14:22:35.828Z,101153.21
2022-11-26T14:25:11.228Z,101150.27
2022-11-26T14:27:53.471Z,101153.70
2022-11-26T14:30:25.445Z,101151.62
2022-11-26T14:33:19.255Z,101160.34
2022-11-26T14:35:56.532Z,101165.98
2022-11-26T14:38:27.021Z,101165.50
2022-11-26T14:41:00.695Z,101171.27
2022-11-26T14:43:29.544Z,101168.44
2022-11-26T14:46:11.174Z,101162.06
2022-11-26T14:48:47.267Z,101167.83
2022-11-26T14:51:23.175Z,101172.75
2022-11-26T14:53:52.708Z,101172.98
2022-11-26T14:56:23.753Z,101181.70
2022-11-26T14:58:55.304Z,101182.81
2022-11-26T15:01:26.639Z,101185.88
2022-11-26T15:04:02.431Z,101178.64
2022-11-26T15:06:36.992Z,101183.67
2022-11-26T15:09:18.909Z,101183.67
2022-11-26T15:12:14.275Z,101191.16
2022-11-26T15:14:54.485Z,101187.36
2022-11-26T15:17:24.484Z,101184.16
2022-11-26T15:19:53.677Z,101185.64
2022-11-26T15:22:39.181Z,101192.02
2022-11-26T15:25:18.607Z,101185.27
2022-11-26T15:28:05.237Z,101173.72
2022-11-26T15:30:36.908Z,101181.09
2022-11-26T15:33:13.037Z,101180.48
2022-11-26T15:35:44.046Z,101179.50
2022-11-26T15:38:20.271Z,101176.43
2022-11-26T15:41:03.740Z,101175.20
2022-11-26T15:43:45.702Z,101179.00
2022-11-26T15:46:27.792Z,101186.50
2022-11-26T15:49:00.561Z,101188.09
2022-11-26T15:51:40.973Z,101192.52
2022-11-26T15:54:49.540Z,101190.67
2022-11-26T15:57:32.708Z,101195.46
2022-11-26T16:00:06.381Z,101197.91
2022-11-26T16:02:35.974Z,101197.05
2022-11-26T16:05:07.673Z,101195.70
2022-11-26T16:07:36.281Z,101197.80
2022-11-26T16:10:20.055Z,101204.17
2022-11-26T16:13:13.501Z,101208.84
2022-11-26T16:15:53.987Z,101207.13
2022-11-26T16:18:27.991Z,101208.23
2022-11-26T16:21:16.947Z,101211.78
2022-11-26T16:23:53.070Z,101213.02
2022-11-26T16:26:22.919Z,101213.27
2022-11-26T16:28:52.410Z,101221.37
2022-11-26T16:31:21.481Z,101215.59
2022-11-26T16:33:50.717Z,101213.88
2022-11-26T16:36:23.404Z,101211.66
2022-11-26T16:38:52.286Z,101214.24
2022-11-26T16:41:22.222Z,101219.04
2022-11-26T16:43:50.691Z,101219.77
2022-11-26T16:46:23.784Z,101218.42
2022-11-26T16:48:52.383Z,101219.66
2022-11-26T16:51:21.292Z,101220.52
2022-11-26T16:53:51.937Z,101226.16
2022-11-26T16:56:33.090Z,101223.72
2022-11-26T16:59:02.515Z,101218.56
2022-11-26T17:01:31.093Z,101221.26
2022-11-26T17:03:59.639Z,101218.06
2022-11-26T17:06:31.628Z,101220.27
2022-11-26T17:09:00.178Z,101223.96
2022-11-26T17:11:29.226Z,101224.08
2022-11-26T17:13:58.035Z,101217.94
2022-11-26T17:16:27.262Z,101219.30
2022-11-26T17:18:56.208Z,101216.59
2022-11-26T17:21:25.696Z,101219.30
2022-11-26T17:23:54.571Z,101220.03
2022-11-26T17:26:24.186Z,101220.40
2022-11-26T17:28:52.922Z,101228.50
2022-11-26T17:31:21.624Z,101225.80
2022-11-26T17:33:50.891Z,101234.65
2022-11-26T17:36:21.433Z,101233.67
2022-11-26T17:38:50.101Z,101233.55
2022-11-26T17:41:20.514Z,101234.90
2022-11-26T17:43:50.007Z,101233.17
2022-11-26T17:46:20.802Z,101232.44
2022-11-26T17:48:49.517Z,101227.64
2022-11-26T17:51:19.713Z,101231.58
2022-11-26T17:53:48.642Z,101231.20
2022-11-26T17:56:21.360Z,101231.58
2022-11-26T17:58:50.744Z,101231.83
2022-11-26T18:01:20.854Z,101232.19
2022-11-26T18:03:51.759Z,101236.25
2022-11-26T18:06:42.082Z,101232.69
2022-11-26T18:09:14.572Z,101238.21
2022-11-26T18:11:51.323Z,101237.96
2022-11-26T18:14:22.540Z,101236.73
2022-11-26T18:16:51.616Z,101242.75
2022-11-26T18:19:24.099Z,101237.84
2022-11-26T18:21:53.650Z,101239.80
2022-11-26T18:24:23.490Z,101238.08
2022-11-26T18:26:54.802Z,101237.70
2022-11-26T18:29:25.196Z,101238.69
2022-11-26T18:31:55.210Z,101242.38
2022-11-26T18:34:25.374Z,101240.65
2022-11-26T18:36:55.724Z,101247.03
2022-11-26T18:39:24.470Z,101257.35
2022-11-26T18:42:00.708Z,101253.67
2022-11-26T18:44:24.931Z,101246.91
2022-11-26T18:46:54.168Z,101253.55
2022-11-26T18:49:23.142Z,101249.87
2022-11-26T18:51:53.260Z,101252.20
2022-11-26T18:54:23.174Z,101261.77
2022-11-26T18:56:54.233Z,101264.11
2022-11-26T18:59:23.414Z,101261.28
2022-11-26T19:01:53.405Z,101257.60
2022-11-26T19:04:23.595Z,101261.77
2022-11-26T19:06:53.026Z,101264.97
2022-11-26T19:09:22.563Z,101268.16
2022-11-26T19:11:54.937Z,101273.31
2022-11-26T19:14:24.072Z,101273.18
2022-11-26T19:16:53.235Z,101279.19
2022-11-26T19:19:23.040Z,101280.17
2022-11-26T19:21:55.514Z,101286.43
2022-11-26T19:24:22.690Z,101291.72
2022-11-26T19:26:51.273Z,101289.86
2022-11-26T19:29:20.986Z,101296.73
2022-11-26T19:31:50.104Z,101289.86
2022-11-26T19:34:19.963Z,101292.81
2022-11-26T19:36:49.223Z,101299.45
2022-11-26T19:39:19.689Z,101300.42
2022-11-26T19:41:48.767Z,101303.37
2022-11-26T19:44:18.775Z,101306.44
2022-11-26T19:46:48.488Z,101308.05
2022-11-26T19:49:17.395Z,101313.45
2022-11-26T19:51:46.340Z,101311.23
2022-11-26T19:54:15.118Z,101314.80
2022-11-26T19:56:45.988Z,101311.60
2022-11-26T19:59:16.006Z,101314.07
2022-11-26T20:01:45.090Z,101313.09
2022-11-26T20:04:17.771Z,101312.72
2022-11-26T20:06:47.151Z,101317.52
2022-11-26T20:09:16.422Z,101311.99
2022-11-26T20:11:45.827Z,101316.05
2022-11-26T20:14:14.454Z,101316.91
2022-11-26T20:16:44.410Z,101319.48
2022-11-26T20:19:13.193Z,101323.91
2022-11-26T20:21:41.826Z,101316.67
2022-11-26T20:24:16.634Z,101319.74
2022-11-26T20:26:48.024Z,101323.05
2022-11-26T20:29:18.084Z,101320.09
2022-11-26T20:31:51.171Z,101320.35
2022-11-26T20:34:23.750Z,101312.85
2022-11-26T20:36:52.911Z,101314.45
2022-11-26T20:39:22.868Z,101315.69
2022-11-26T20:41:51.660Z,101313.11
2022-11-26T20:44:20.304Z,101313.11
2022-11-26T20:46:49.335Z,101306.84
2022-11-26T20:49:19.515Z,101307.08
2022-11-26T20:51:48.374Z,101317.52
2022-11-26T20:54:17.019Z,101319.36
2022-11-26T20:56:46.561Z,101318.37
2022-11-26T20:59:16.825Z,101317.02
2022-11-26T21:01:45.964Z,101321.56
2022-11-26T21:04:14.861Z,101323.03
2022-11-26T21:06:43.865Z,101326.83
2022-11-26T21:09:13.280Z,101330.62
2022-11-26T21:11:43.173Z,101340.09
2022-11-26T21:14:15.210Z,101329.52
2022-11-26T21:16:44.610Z,101335.78
2022-11-26T21:19:13.523Z,101344.49
2022-11-26T21:21:42.275Z,101345.95
2022-11-26T21:24:12.044Z,101339.32
2022-11-26T21:26:40.676Z,101343.86
2022-11-26T21:29:09.269Z,101348.41
2022-11-26T21:31:38.152Z,101349.98
2022-11-26T21:34:07.553Z,101361.16
2022-11-26T21:36:37.072Z,101355.02
2022-11-26T21:39:06.350Z,101354.50
2022-11-26T21:41:35.648Z,101343.33
2022-11-26T21:44:05.028Z,101344.80
2022-11-26T21:46:38.670Z,101350.56
2022-11-26T21:49:07.596Z,101348.73
2022-11-26T21:51:36.641Z,101352.66
2022-11-26T21:54:05.731Z,101348.98
2022-11-26T21:56:34.393Z,101345.80
2022-11-26T21:59:03.249Z,101354.64
2022-11-26T22:01:36.951Z,101352.92
2022-11-26T22:04:14.634Z,101348.23
2022-11-26T22:06:46.879Z,101347.75
2022-11-26T22:09:17.018Z,101356.23
2022-11-26T22:11:46.252Z,101352.17
2022-11-26T22:14:16.149Z,101356.72
2022-11-26T22:16:53.907Z,101353.41
2022-11-26T22:19:23.210Z,101353.78
2022-11-26T22:21:52.041Z,101357.23
2022-11-26T22:24:20.958Z,101347.41
2022-11-26T22:26:50.442Z,101347.89
2022-11-26T22:29:19.892Z,101343.84
2022-11-26T22:31:50.261Z,101347.41
2022-11-26T22:34:24.402Z,101349.73
2022-11-26T22:36:53.399Z,101357.43
2022-11-26T22:39:23.369Z,101352.27
2022-11-26T22:41:53.107Z,101358.16
2022-11-26T22:44:22.206Z,101352.75
2022-11-26T22:46:50.954Z,101356.31
2022-11-26T22:49:21.850Z,101346.12
2022-11-26T22:51:50.523Z,101348.81
2022-11-26T22:54:21.056Z,101352.14
2022-11-26T22:56:50.976Z,101352.14
2022-11-26T22:59:20.624Z,101355.34
2022-11-26T23:01:53.609Z,101357.92
2022-11-26T23:04:22.304Z,101352.03
2022-11-26T23:06:52.229Z,101353.98
2022-11-26T23:09:21.288Z,101353.01
2022-11-26T23:11:51.367Z,101359.64
2022-11-26T23:14:19.871Z,101354.62
2022-11-26T23:16:48.659Z,101364.06
2022-11-26T23:19:18.556Z,101360.51
2022-11-26T23:21:47.588Z,101359.53
2022-11-26T23:24:16.229Z,101356.83
2022-11-26T23:26:45.027Z,101360.88
2022-11-26T23:29:13.831Z,101360.88
2022-11-26T23:31:43.846Z,101361.00
2022-11-26T23:34:12.720Z,101361.97
2022-11-26T23:36:42.644Z,101349.19
2022-11-26T23:39:12.003Z,101356.55
2022-11-26T23:41:41.044Z,101356.77
2022-11-26T23:44:10.322Z,101355.66
2022-11-26T23:46:40.396Z,101356.77
2022-11-26T23:49:09.420Z,101361.20
2022-11-26T23:51:39.183Z,101354.56
2022-11-26T23:54:09.169Z,101357.27
2022-11-26T23:56:38.468Z,101360.11
2022-11-26T23:59:07.899Z,101367.48
